Time;durP1;ratioP1;P1;durP2;ratioP2;P2;SDS_P1;SDS_P2;PMS_P1;PMS_P2;Temp;Humidity;BMP_temperature;BMP_pressure;BME280_temperature;BME280_humidity;BME280_pressure;Samples;Min_cycle;Max_cycle;Signal;HPM_P1;HPM_P2
2022/11/16 00:02:52;;;;;;;;;13.00;12.00;;;;;;;;114903;1203;24805;-61
2022/11/16 00:05:21;;;;;;;;;17.33;14.33;;;;;;;;114947;1203;25751;-59
2022/11/16 00:07:57;;;;;;;;;15.50;13.00;;;;;;;;114917;1203;25367;-58
2022/11/16 00:10:25;;;;;;;;;16.00;12.50;;;;;;;;114933;1199;25018;-58
2022/11/16 00:12:54;;;;;;;;;16.50;13.50;;;;;;;;114957;1208;25150;-58
2022/11/16 00:15:22;;;;;;;;;12.50;10.00;;;;;;;;114962;1203;25201;-58
2022/11/16 00:17:50;;;;;;;;;10.00;8.50;;;;;;;;114949;1199;25537;-59
2022/11/16 00:20:19;;;;;;;;;13.00;12.00;;;;;;;;114954;1203;24865;-58
2022/11/16 00:22:47;;;;;;;;;13.67;12.67;;;;;;;;114948;1199;24868;-58
2022/11/16 00:25:15;;;;;;;;;17.00;13.00;;;;;;;;114932;1199;25679;-59
2022/11/16 00:27:44;;;;;;;;;9.00;9.00;;;;;;;;114941;1203;25795;-58
2022/11/16 00:30:12;;;;;;;;;21.00;16.00;;;;;;;;114934;1206;25590;-57
2022/11/16 00:32:41;;;;;;;;;14.00;12.00;;;;;;;;114939;1203;25414;-58
2022/11/16 00:35:09;;;;;;;;;15.00;12.00;;;;;;;;114957;1203;26311;-58
2022/11/16 00:37:37;;;;;;;;;14.00;13.00;;;;;;;;114964;1200;25575;-58
2022/11/16 00:40:07;;;;;;;;;12.00;11.00;;;;;;;;114903;1194;25198;-58
2022/11/16 00:42:35;;;;;;;;;15.67;12.00;;;;;;;;114958;1201;24986;-58
2022/11/16 00:45:04;;;;;;;;;16.00;15.00;;;;;;;;114889;1206;25295;-58
2022/11/16 00:47:32;;;;;;;;;14.00;14.00;;;;;;;;114941;1203;25885;-58
2022/11/16 00:50:00;;;;;;;;;16.00;12.00;;;;;;;;114949;1203;25684;-58
2022/11/16 00:52:31;;;;;;;;;16.00;14.67;;;;;;;;114968;1203;24890;-58
2022/11/16 00:54:59;;;;;;;;;17.33;14.33;;;;;;;;114903;1200;25654;-58
2022/11/16 00:57:27;;;;;;;;;17.00;13.50;;;;;;;;114909;1200;25768;-58
2022/11/16 00:59:56;;;;;;;;;17.50;16.00;;;;;;;;114944;1203;25256;-58
2022/11/16 01:02:24;;;;;;;;;17.50;14.50;;;;;;;;114924;1206;25385;-58
2022/11/16 01:04:52;;;;;;;;;16.50;11.50;;;;;;;;114915;1200;25985;-58
2022/11/16 01:07:21;;;;;;;;;16.00;13.00;;;;;;;;114829;1201;25894;-58
2022/11/16 01:09:49;;;;;;;;;14.67;13.33;;;;;;;;114856;1204;25084;-57
2022/11/16 01:12:17;;;;;;;;;11.00;10.00;;;;;;;;114836;1204;25669;-58
2022/11/16 01:14:46;;;;;;;;;17.00;14.00;;;;;;;;114801;1207;24873;-58
2022/11/16 01:17:14;;;;;;;;;15.67;12.00;;;;;;;;114812;1200;24815;-58
2022/11/16 01:19:43;;;;;;;;;12.00;12.00;;;;;;;;114774;1206;24762;-57
2022/11/16 01:22:11;;;;;;;;;14.00;10.50;;;;;;;;114908;1208;25299;-57
2022/11/16 01:24:40;;;;;;;;;11.00;10.00;;;;;;;;114922;1203;25505;-58
2022/11/16 01:27:08;;;;;;;;;15.50;11.50;;;;;;;;114898;1203;25570;-58
2022/11/16 01:29:36;;;;;;;;;14.00;12.00;;;;;;;;114865;1206;25310;-60
2022/11/16 01:32:05;;;;;;;;;16.00;12.00;;;;;;;;114912;1203;25401;-60
2022/11/16 01:34:35;;;;;;;;;12.00;12.00;;;;;;;;114881;1200;25357;-59
2022/11/16 01:37:03;;;;;;;;;15.00;12.00;;;;;;;;114876;1200;24946;-59
2022/11/16 01:39:32;;;;;;;;;16.00;13.50;;;;;;;;114931;1206;25761;-59
2022/11/16 01:42:00;;;;;;;;;14.50;12.00;;;;;;;;114916;1200;25826;-59
2022/11/16 01:44:31;;;;;;;;;13.00;12.50;;;;;;;;114903;1200;25785;-58
2022/11/16 01:47:03;;;;;;;;;14.00;9.00;;;;;;;;114751;1203;24882;-59
2022/11/16 01:49:35;;;;;;;;;15.00;11.00;;;;;;;;114938;1203;25476;-60
2022/11/16 01:52:07;;;;;;;;;17.50;15.50;;;;;;;;114873;1197;25041;-60
2022/11/16 01:54:37;;;;;;;;;18.00;15.67;;;;;;;;114884;1208;25028;-58
2022/11/16 01:57:10;;;;;;;;;15.50;13.00;;;;;;;;114934;1208;25315;-57
2022/11/16 01:59:39;;;;;;;;;14.00;12.00;;;;;;;;114920;1206;24886;-57
2022/11/16 02:02:08;;;;;;;;;15.00;13.00;;;;;;;;114941;1200;25090;-57
2022/11/16 02:04:36;;;;;;;;;12.00;10.00;;;;;;;;114917;1200;24783;-58
2022/11/16 02:07:07;;;;;;;;;15.00;13.00;;;;;;;;114919;1200;25148;-58
2022/11/16 02:09:54;;;;;;;;;14.00;13.00;;;;;;;;114939;1199;25452;-57
2022/11/16 02:12:34;;;;;;;;;14.00;11.00;;;;;;;;114979;1203;24791;-58
2022/11/16 02:15:08;;;;;;;;;13.50;11.50;;;;;;;;114966;1200;26334;-58
2022/11/16 02:17:49;;;;;;;;;16.00;12.00;;;;;;;;114889;1198;25578;-58
2022/11/16 02:20:37;;;;;;;;;14.00;10.33;;;;;;;;114941;1203;24959;-58
2022/11/16 02:23:24;;;;;;;;;13.00;10.33;;;;;;;;114934;1200;26492;-57
2022/11/16 02:26:10;;;;;;;;;15.50;12.00;;;;;;;;114939;1203;24959;-58
2022/11/16 02:28:45;;;;;;;;;11.00;11.00;;;;;;;;114881;1203;25248;-58
2022/11/16 02:31:19;;;;;;;;;10.00;9.00;;;;;;;;114934;1203;24704;-57
2022/11/16 02:33:49;;;;;;;;;12.00;10.00;;;;;;;;114883;1206;25502;-59
2022/11/16 02:36:20;;;;;;;;;16.33;13.00;;;;;;;;114922;1200;25133;-59
2022/11/16 02:38:57;;;;;;;;;12.00;11.00;;;;;;;;114934;1205;24750;-59
2022/11/16 02:41:27;;;;;;;;;10.00;10.00;;;;;;;;114943;1205;25015;-58
2022/11/16 02:44:01;;;;;;;;;12.00;12.00;;;;;;;;114862;1197;24757;-60
2022/11/16 02:46:35;;;;;;;;;16.00;14.00;;;;;;;;114924;1203;25563;-61
2022/11/16 02:49:08;;;;;;;;;12.00;11.50;;;;;;;;114840;1200;24680;-62
2022/11/16 02:51:37;;;;;;;;;12.50;10.50;;;;;;;;114776;1203;26404;-56
2022/11/16 02:54:07;;;;;;;;;8.00;8.00;;;;;;;;114822;1203;25053;-58
2022/11/16 02:56:47;;;;;;;;;14.33;10.00;;;;;;;;114938;1203;25480;-58
2022/11/16 02:59:16;;;;;;;;;13.00;11.00;;;;;;;;114956;1208;25747;-58
2022/11/16 03:02:06;;;;;;;;;13.00;11.00;;;;;;;;114880;1208;25093;-58
2022/11/16 03:04:38;;;;;;;;;15.50;12.00;;;;;;;;114939;1204;25686;-58
2022/11/16 03:07:09;;;;;;;;;7.00;7.00;;;;;;;;114934;1200;25670;-58
2022/11/16 03:09:40;;;;;;;;;10.00;9.00;;;;;;;;114870;1208;24731;-57
2022/11/16 03:12:13;;;;;;;;;15.00;13.00;;;;;;;;114938;1203;25489;-58
2022/11/16 03:14:45;;;;;;;;;14.50;11.00;;;;;;;;114914;1200;25164;-58
2022/11/16 03:17:26;;;;;;;;;14.00;12.00;;;;;;;;114970;1199;25581;-57
2022/11/16 03:20:06;;;;;;;;;12.00;12.00;;;;;;;;114947;1206;24907;-57
2022/11/16 03:22:51;;;;;;;;;14.00;10.00;;;;;;;;114934;1200;25137;-58
2022/11/16 03:25:20;;;;;;;;;17.00;11.00;;;;;;;;114911;1203;24846;-58
2022/11/16 03:28:13;;;;;;;;;14.00;11.00;;;;;;;;114899;1200;25380;-58
2022/11/16 03:30:48;;;;;;;;;13.00;11.00;;;;;;;;114908;1202;25119;-59
2022/11/16 03:33:32;;;;;;;;;11.33;10.00;;;;;;;;114917;1197;24751;-58
2022/11/16 03:36:04;;;;;;;;;11.00;10.00;;;;;;;;114923;1206;25186;-59
2022/11/16 03:38:34;;;;;;;;;9.50;9.50;;;;;;;;114882;1203;24920;-58
2022/11/16 03:41:06;;;;;;;;;14.00;11.00;;;;;;;;114854;1206;24941;-58
2022/11/16 03:43:36;;;;;;;;;12.00;9.50;;;;;;;;114933;1198;25611;-58
2022/11/16 03:46:05;;;;;;;;;14.00;10.00;;;;;;;;114774;1200;24772;-59
2022/11/16 03:48:34;;;;;;;;;15.00;11.00;;;;;;;;114807;1206;24788;-58
2022/11/16 03:51:04;;;;;;;;;9.00;8.50;;;;;;;;114859;1203;25381;-58
2022/11/16 03:53:32;;;;;;;;;9.00;6.50;;;;;;;;114865;1206;24875;-57
2022/11/16 03:56:02;;;;;;;;;12.00;9.67;;;;;;;;114866;1200;24862;-56
2022/11/16 03:58:30;;;;;;;;;16.00;12.00;;;;;;;;114887;1207;24843;-58
2022/11/16 04:00:59;;;;;;;;;11.00;9.50;;;;;;;;114903;1200;26231;-58
2022/11/16 04:03:27;;;;;;;;;12.00;11.00;;;;;;;;114901;1208;24997;-58
2022/11/16 04:25:43;;;;;;;;;15.00;9.00;;;;;;;;114944;1202;26244;-57
2022/11/16 04:28:12;;;;;;;;;15.00;12.00;;;;;;;;114968;1208;25194;-57
2022/11/16 04:39:11;;;;;;;;;5.00;5.00;;;;;;;;114932;1204;25516;-58
2022/11/16 04:47:05;;;;;;;;;13.00;11.00;;;;;;;;114878;1196;24995;-59
2022/11/16 04:47:15;;;;;;;;;11.00;9.00;;;;;;;;114815;1203;25555;-58
2022/11/16 04:49:43;;;;;;;;;10.00;8.00;;;;;;;;114843;1200;26196;-57
2022/11/16 04:52:11;;;;;;;;;13.00;11.00;;;;;;;;114887;1203;24749;-58
2022/11/16 04:54:40;;;;;;;;;12.00;10.00;;;;;;;;114912;1206;25169;-58
2022/11/16 04:57:08;;;;;;;;;11.00;11.00;;;;;;;;114901;1206;25526;-58
2022/11/16 04:59:36;;;;;;;;;6.67;6.67;;;;;;;;114896;1206;25968;-57
2022/11/16 05:02:07;;;;;;;;;14.00;11.00;;;;;;;;114944;1200;25374;-58
2022/11/16 05:04:37;;;;;;;;;15.00;14.00;;;;;;;;114881;1206;25132;-58
2022/11/16 05:07:09;;;;;;;;;19.00;11.00;;;;;;;;114969;1203;26126;-58
2022/11/16 05:09:43;;;;;;;;;11.00;9.33;;;;;;;;114857;1203;25032;-59
2022/11/16 05:12:20;;;;;;;;;9.00;7.00;;;;;;;;114862;1196;25227;-59
2022/11/16 05:14:48;;;;;;;;;;;;;;;;;;114959;1202;24650;-59
2022/11/16 05:17:17;;;;;;;;;11.00;9.50;;;;;;;;114896;1193;25509;-58
2022/11/16 05:22:34;;;;;;;;;11.00;9.00;;;;;;;;114876;1206;25815;-57
2022/11/16 05:25:04;;;;;;;;;13.00;9.00;;;;;;;;114909;1199;25247;-57
2022/11/16 05:27:32;;;;;;;;;15.00;11.00;;;;;;;;114953;1198;25441;-57
2022/11/16 05:30:00;;;;;;;;;13.00;10.00;;;;;;;;114857;1204;25291;-57
2022/11/16 05:32:28;;;;;;;;;13.33;9.33;;;;;;;;114927;1200;25274;-57
2022/11/16 05:34:57;;;;;;;;;13.00;11.33;;;;;;;;114928;1203;25348;-58
2022/11/16 05:37:25;;;;;;;;;9.67;8.00;;;;;;;;114876;1203;26358;-58
2022/11/16 05:39:55;;;;;;;;;14.33;11.00;;;;;;;;114948;1206;24962;-59
2022/11/16 05:42:24;;;;;;;;;11.00;9.00;;;;;;;;114901;1200;25178;-61
2022/11/16 05:44:52;;;;;;;;;14.00;9.50;;;;;;;;114892;1208;24763;-62
2022/11/16 05:47:20;;;;;;;;;18.50;11.50;;;;;;;;114911;1208;25054;-59
2022/11/16 05:49:49;;;;;;;;;15.00;12.00;;;;;;;;114890;1203;24776;-58
2022/11/16 05:52:17;;;;;;;;;16.00;12.50;;;;;;;;114948;1204;25363;-55
2022/11/16 05:54:45;;;;;;;;;17.00;13.00;;;;;;;;114905;1208;25268;-56
2022/11/16 05:57:14;;;;;;;;;14.00;12.00;;;;;;;;114833;1206;24900;-57
2022/11/16 05:59:43;;;;;;;;;12.00;10.00;;;;;;;;114844;1206;25644;-58
2022/11/16 06:02:11;;;;;;;;;14.00;12.50;;;;;;;;114827;1200;24716;-58
2022/11/16 06:04:39;;;;;;;;;15.00;10.00;;;;;;;;114914;1200;25205;-58
2022/11/16 06:07:08;;;;;;;;;16.00;14.00;;;;;;;;114888;1200;25536;-58
2022/11/16 06:09:36;;;;;;;;;18.00;14.00;;;;;;;;114850;1201;25755;-58
2022/11/16 06:12:05;;;;;;;;;15.00;13.00;;;;;;;;114848;1208;24917;-58
2022/11/16 06:14:33;;;;;;;;;16.00;12.00;;;;;;;;114795;1206;24753;-58
2022/11/16 06:17:01;;;;;;;;;11.00;10.00;;;;;;;;114883;1200;25029;-59
2022/11/16 06:19:30;;;;;;;;;17.00;13.00;;;;;;;;114797;1208;25401;-58
2022/11/16 06:21:59;;;;;;;;;13.00;10.00;;;;;;;;114879;1208;26271;-58
2022/11/16 06:24:28;;;;;;;;;13.33;12.00;;;;;;;;114864;1208;25694;-57
2022/11/16 06:26:56;;;;;;;;;19.00;13.00;;;;;;;;114929;1200;26006;-57
2022/11/16 06:29:24;;;;;;;;;11.00;10.33;;;;;;;;114953;1200;25331;-57
2022/11/16 06:31:53;;;;;;;;;13.00;13.00;;;;;;;;114877;1203;25497;-57
2022/11/16 06:34:21;;;;;;;;;13.75;10.75;;;;;;;;114889;1200;25752;-57
2022/11/16 06:36:49;;;;;;;;;15.00;11.50;;;;;;;;114827;1204;25743;-57
2022/11/16 06:39:18;;;;;;;;;14.00;11.50;;;;;;;;114895;1205;26103;-57
2022/11/16 06:41:46;;;;;;;;;14.00;12.00;;;;;;;;114956;1199;25063;-57
2022/11/16 06:44:14;;;;;;;;;17.00;11.50;;;;;;;;114908;1206;25466;-57
2022/11/16 06:46:43;;;;;;;;;19.00;13.00;;;;;;;;114929;1206;25260;-57
2022/11/16 06:49:11;;;;;;;;;16.50;13.50;;;;;;;;114933;1203;24978;-57
2022/11/16 06:51:39;;;;;;;;;14.00;12.00;;;;;;;;114900;1203;25287;-57
2022/11/16 06:54:08;;;;;;;;;15.67;10.00;;;;;;;;114832;1203;25321;-57
2022/11/16 06:56:36;;;;;;;;;10.00;10.00;;;;;;;;114817;1200;25612;-57
2022/11/16 06:59:05;;;;;;;;;15.50;12.00;;;;;;;;114909;1206;25297;-57
2022/11/16 07:01:33;;;;;;;;;13.75;12.50;;;;;;;;114900;1203;25247;-57
2022/11/16 07:04:02;;;;;;;;;13.50;11.50;;;;;;;;114922;1206;25162;-57
2022/11/16 07:06:30;;;;;;;;;15.33;10.67;;;;;;;;114864;1200;25787;-57
2022/11/16 07:08:58;;;;;;;;;13.67;9.00;;;;;;;;114862;1203;26412;-57
2022/11/16 07:11:27;;;;;;;;;13.00;11.00;;;;;;;;114895;1203;25212;-57
2022/11/16 07:13:55;;;;;;;;;13.50;11.50;;;;;;;;114916;1208;25449;-57
2022/11/16 07:16:24;;;;;;;;;14.00;10.67;;;;;;;;114899;1206;25501;-57
2022/11/16 07:18:55;;;;;;;;;15.00;13.00;;;;;;;;114940;1199;24811;-56
2022/11/16 07:21:24;;;;;;;;;12.50;10.50;;;;;;;;114924;1204;26009;-57
2022/11/16 07:23:53;;;;;;;;;17.00;12.50;;;;;;;;114935;1200;25624;-57
2022/11/16 07:26:22;;;;;;;;;15.00;12.00;;;;;;;;114888;1199;24966;-57
2022/11/16 07:28:50;;;;;;;;;12.00;11.00;;;;;;;;114819;1203;25558;-57
2022/11/16 07:31:18;;;;;;;;;15.67;12.67;;;;;;;;114960;1203;26519;-57
2022/11/16 07:33:46;;;;;;;;;19.00;12.00;;;;;;;;114952;1200;24708;-57
2022/11/16 07:36:15;;;;;;;;;13.50;13.00;;;;;;;;114934;1200;26127;-57
2022/11/16 07:38:44;;;;;;;;;15.00;11.50;;;;;;;;114900;1208;24842;-57
2022/11/16 07:41:17;;;;;;;;;17.50;14.00;;;;;;;;114935;1200;24798;-58
2022/11/16 07:43:46;;;;;;;;;19.00;17.00;;;;;;;;114922;1207;25240;-59
2022/11/16 07:46:22;;;;;;;;;12.50;11.00;;;;;;;;114975;1203;25495;-60
2022/11/16 07:49:15;;;;;;;;;17.00;16.00;;;;;;;;114980;1193;24914;-59
2022/11/16 07:51:44;;;;;;;;;17.50;14.00;;;;;;;;114773;1200;24763;-58
2022/11/16 07:54:13;;;;;;;;;17.33;14.00;;;;;;;;114700;1193;24898;-58
2022/11/16 07:56:42;;;;;;;;;14.00;12.50;;;;;;;;114894;1200;25327;-58
2022/11/16 07:59:10;;;;;;;;;16.00;11.00;;;;;;;;114932;1200;25601;-58
2022/11/16 08:01:38;;;;;;;;;11.50;11.50;;;;;;;;114940;1208;25323;-58
2022/11/16 08:04:07;;;;;;;;;15.67;12.33;;;;;;;;114912;1204;25545;-58
2022/11/16 08:06:35;;;;;;;;;18.00;14.00;;;;;;;;114871;1208;25665;-58
2022/11/16 08:09:04;;;;;;;;;15.75;12.75;;;;;;;;114823;1201;24704;-58
2022/11/16 08:11:32;;;;;;;;;22.00;18.00;;;;;;;;114927;1208;24872;-58
2022/11/16 08:14:00;;;;;;;;;21.00;17.00;;;;;;;;114856;1201;25515;-58
2022/11/16 08:16:32;;;;;;;;;28.00;18.00;;;;;;;;114912;1199;25574;-58
2022/11/16 08:19:01;;;;;;;;;25.50;16.50;;;;;;;;114867;1203;25600;-58
2022/11/16 08:21:29;;;;;;;;;22.50;14.50;;;;;;;;114850;1206;24798;-58
2022/11/16 08:23:58;;;;;;;;;18.00;14.50;;;;;;;;114791;1200;25236;-58
2022/11/16 08:26:26;;;;;;;;;17.00;13.50;;;;;;;;114818;1204;25342;-57
2022/11/16 08:28:55;;;;;;;;;17.50;16.00;;;;;;;;114877;1200;24873;-58
2022/11/16 08:31:28;;;;;;;;;24.00;17.50;;;;;;;;114879;1204;25498;-57
2022/11/16 08:33:59;;;;;;;;;22.50;15.00;;;;;;;;114882;1203;25430;-57
2022/11/16 08:36:27;;;;;;;;;24.00;18.00;;;;;;;;114824;1206;25450;-59
2022/11/16 08:38:56;;;;;;;;;23.00;19.00;;;;;;;;114863;1206;25062;-57
2022/11/16 08:41:24;;;;;;;;;22.00;15.00;;;;;;;;114778;1206;25073;-57
2022/11/16 08:43:52;;;;;;;;;18.50;15.00;;;;;;;;114834;1206;24705;-58
2022/11/16 08:46:21;;;;;;;;;21.50;17.00;;;;;;;;114816;1200;24799;-57
2022/11/16 08:48:54;;;;;;;;;21.00;17.50;;;;;;;;114771;1208;24698;-57
2022/11/16 08:51:23;;;;;;;;;20.00;17.50;;;;;;;;114835;1203;24765;-58
2022/11/16 08:53:57;;;;;;;;;18.50;14.00;;;;;;;;114867;1204;25020;-57
2022/11/16 08:56:26;;;;;;;;;18.00;17.00;;;;;;;;114854;1202;25194;-58
2022/11/16 08:58:55;;;;;;;;;16.00;13.00;;;;;;;;114818;1206;25630;-58
2022/11/16 09:01:28;;;;;;;;;17.00;15.00;;;;;;;;114855;1200;25249;-57
2022/11/16 09:03:57;;;;;;;;;17.50;15.50;;;;;;;;114821;1203;25535;-57
2022/11/16 09:06:26;;;;;;;;;19.67;18.00;;;;;;;;114853;1206;24851;-57
2022/11/16 09:08:55;;;;;;;;;17.00;15.00;;;;;;;;114901;1199;25041;-57
2022/11/16 09:11:25;;;;;;;;;24.00;19.00;;;;;;;;114877;1204;25382;-57
2022/11/16 09:13:54;;;;;;;;;20.00;16.00;;;;;;;;114892;1198;25398;-57
2022/11/16 09:16:22;;;;;;;;;19.50;15.00;;;;;;;;114878;1206;25383;-57
2022/11/16 09:18:51;;;;;;;;;22.50;17.00;;;;;;;;114891;1202;25614;-57
2022/11/16 09:21:25;;;;;;;;;24.00;15.00;;;;;;;;114930;1203;25331;-57
2022/11/16 09:23:55;;;;;;;;;18.00;14.00;;;;;;;;114891;1203;25077;-58
2022/11/16 09:26:25;;;;;;;;;21.00;16.00;;;;;;;;114906;1206;25463;-58
2022/11/16 09:28:56;;;;;;;;;18.33;13.67;;;;;;;;114933;1201;25297;-58
2022/11/16 09:31:26;;;;;;;;;24.00;17.00;;;;;;;;114895;1197;24994;-57
2022/11/16 09:33:57;;;;;;;;;22.00;19.00;;;;;;;;114907;1203;25191;-57
2022/11/16 09:36:27;;;;;;;;;17.50;15.50;;;;;;;;114906;1207;25538;-57
2022/11/16 09:38:56;;;;;;;;;21.00;16.00;;;;;;;;114923;1200;25270;-58
2022/11/16 09:42:00;;;;;;;;;21.00;18.00;;;;;;;;114895;1207;25005;-58
2022/11/16 09:44:37;;;;;;;;;19.00;14.00;;;;;;;;114915;1203;24972;-59
2022/11/16 09:47:17;;;;;;;;;22.00;17.00;;;;;;;;114949;1200;24769;-59
2022/11/16 09:49:51;;;;;;;;;22.00;19.00;;;;;;;;114894;1200;25085;-59
2022/11/16 09:52:32;;;;;;;;;21.00;15.00;;;;;;;;114902;1199;25755;-58
2022/11/16 09:55:28;;;;;;;;;16.50;12.50;;;;;;;;114861;1203;25851;-58
2022/11/16 09:58:00;;;;;;;;;21.00;17.50;;;;;;;;114906;1194;24809;-58
2022/11/16 10:00:29;;;;;;;;;19.50;15.50;;;;;;;;114905;1208;25511;-57
2022/11/16 10:03:18;;;;;;;;;18.00;16.00;;;;;;;;114873;1208;24881;-57
2022/11/16 10:05:55;;;;;;;;;21.00;18.00;;;;;;;;114807;1207;25170;-58
2022/11/16 10:08:39;;;;;;;;;19.00;14.00;;;;;;;;114948;1208;25401;-57
2022/11/16 10:11:10;;;;;;;;;14.00;12.00;;;;;;;;114903;1197;25373;-57
2022/11/16 10:13:46;;;;;;;;;13.50;12.50;;;;;;;;114885;1206;24723;-57
2022/11/16 10:16:30;;;;;;;;;18.00;15.00;;;;;;;;114861;1197;24865;-57
2022/11/16 10:19:06;;;;;;;;;18.00;15.00;;;;;;;;114932;1200;24779;-58
2022/11/16 10:21:42;;;;;;;;;20.00;13.00;;;;;;;;114898;1200;25571;-57
2022/11/16 10:24:24;;;;;;;;;20.00;18.00;;;;;;;;114940;1200;25655;-57
2022/11/16 10:27:15;;;;;;;;;20.00;16.67;;;;;;;;114900;1203;25442;-58
2022/11/16 10:30:12;;;;;;;;;24.50;17.50;;;;;;;;114827;1201;24957;-57
2022/11/16 10:32:58;;;;;;;;;18.00;13.50;;;;;;;;114919;1200;25120;-58
2022/11/16 10:35:30;;;;;;;;;26.00;18.00;;;;;;;;114900;1200;24979;-58
2022/11/16 10:38:01;;;;;;;;;23.00;19.00;;;;;;;;114879;1206;24781;-58
2022/11/16 10:40:36;;;;;;;;;24.00;18.00;;;;;;;;114938;1203;24814;-58
2022/11/16 10:43:22;;;;;;;;;23.00;18.00;;;;;;;;114879;1203;24872;-58
2022/11/16 10:46:18;;;;;;;;;23.00;17.00;;;;;;;;114857;1199;24851;-58
2022/11/16 10:49:10;;;;;;;;;18.00;14.00;;;;;;;;114930;1206;25166;-57
2022/11/16 10:51:38;;;;;;;;;23.00;22.00;;;;;;;;114849;1203;25477;-58
2022/11/16 10:54:14;;;;;;;;;24.00;17.00;;;;;;;;114928;1200;24951;-58
2022/11/16 10:56:45;;;;;;;;;26.67;17.67;;;;;;;;114859;1200;25377;-58
2022/11/16 10:59:17;;;;;;;;;20.00;14.00;;;;;;;;114875;1192;25230;-57
2022/11/16 11:01:50;;;;;;;;;26.00;20.00;;;;;;;;114824;1200;25438;-58
2022/11/16 11:04:30;;;;;;;;;22.00;19.00;;;;;;;;114834;1207;24937;-58
2022/11/16 11:07:00;;;;;;;;;20.50;17.50;;;;;;;;114833;1200;25355;-57
2022/11/16 11:09:33;;;;;;;;;20.00;19.00;;;;;;;;114810;1196;25276;-58
2022/11/16 11:15:03;;;;;;;;;21.00;15.00;;;;;;;;114863;1200;24861;-57
2022/11/16 11:17:34;;;;;;;;;25.00;19.00;;;;;;;;114868;1197;24675;-58
2022/11/16 11:20:14;;;;;;;;;21.00;17.50;;;;;;;;114825;1204;24845;-57
2022/11/16 11:23:01;;;;;;;;;11.00;10.00;;;;;;;;114879;1208;25475;-58
2022/11/16 11:25:31;;;;;;;;;19.00;19.00;;;;;;;;114880;1203;25388;-57
2022/11/16 11:28:15;;;;;;;;;19.50;15.00;;;;;;;;114895;1208;24928;-57
2022/11/16 11:31:24;;;;;;;;;30.50;20.00;;;;;;;;114891;1197;25021;-58
2022/11/16 11:34:01;;;;;;;;;21.33;18.00;;;;;;;;114900;1206;25666;-57
2022/11/16 11:36:38;;;;;;;;;21.00;19.00;;;;;;;;114926;1197;24816;-57
2022/11/16 11:39:11;;;;;;;;;24.00;21.50;;;;;;;;114879;1203;25462;-58
2022/11/16 11:41:44;;;;;;;;;20.50;18.50;;;;;;;;114878;1208;24695;-57
2022/11/16 11:44:12;;;;;;;;;18.50;17.50;;;;;;;;114920;1203;25306;-58
2022/11/16 11:46:51;;;;;;;;;20.00;17.00;;;;;;;;114875;1205;25410;-58
2022/11/16 11:49:41;;;;;;;;;26.50;19.00;;;;;;;;114839;1200;24878;-58
2022/11/16 11:52:24;;;;;;;;;31.00;18.50;;;;;;;;114880;1197;24787;-58
2022/11/16 11:54:54;;;;;;;;;22.00;20.00;;;;;;;;114891;1206;25477;-59
2022/11/16 11:57:24;;;;;;;;;23.00;19.00;;;;;;;;114790;1201;25316;-58
2022/11/16 11:59:53;;;;;;;;;21.00;20.00;;;;;;;;114823;1204;24840;-58
2022/11/16 12:02:37;;;;;;;;;31.00;20.00;;;;;;;;114881;1200;25306;-58
2022/11/16 12:05:20;;;;;;;;;23.00;19.00;;;;;;;;114872;1200;24943;-58
2022/11/16 12:08:11;;;;;;;;;23.50;21.00;;;;;;;;114856;1197;25387;-59
2022/11/16 12:10:50;;;;;;;;;17.00;14.00;;;;;;;;114866;1199;25485;-58
2022/11/16 12:13:35;;;;;;;;;23.00;20.00;;;;;;;;114899;1207;25160;-58
2022/11/16 12:16:07;;;;;;;;;21.00;16.33;;;;;;;;114828;1203;25752;-58
2022/11/16 12:19:00;;;;;;;;;19.00;18.00;;;;;;;;114880;1203;25554;-57
2022/11/16 12:21:58;;;;;;;;;24.50;20.00;;;;;;;;114869;1203;25317;-58
2022/11/16 12:24:55;;;;;;;;;18.00;16.00;;;;;;;;114908;1203;25041;-58
2022/11/16 12:27:51;;;;;;;;;24.00;16.50;;;;;;;;114830;1199;25629;-59
2022/11/16 12:30:21;;;;;;;;;22.00;20.00;;;;;;;;114830;1205;25328;-58
2022/11/16 12:33:13;;;;;;;;;22.00;18.00;;;;;;;;114801;1194;25308;-58
2022/11/16 12:35:58;;;;;;;;;22.00;17.00;;;;;;;;114848;1208;25161;-58
2022/11/16 12:39:01;;;;;;;;;22.50;19.50;;;;;;;;114894;1204;25685;-58
2022/11/16 12:41:48;;;;;;;;;30.00;24.00;;;;;;;;114904;1203;25225;-58
2022/11/16 12:44:58;;;;;;;;;19.00;16.50;;;;;;;;114941;1203;25379;-58
2022/11/16 12:47:39;;;;;;;;;22.00;19.50;;;;;;;;114858;1206;25228;-59
2022/11/16 12:50:07;;;;;;;;;21.00;18.00;;;;;;;;114901;1207;25423;-57
2022/11/16 12:52:52;;;;;;;;;22.67;20.00;;;;;;;;114861;1208;25452;-58
2022/11/16 12:55:38;;;;;;;;;22.00;16.00;;;;;;;;114932;1208;25072;-57
2022/11/16 12:58:17;;;;;;;;;23.00;18.50;;;;;;;;114936;1206;24821;-58
2022/11/16 13:00:54;;;;;;;;;22.00;17.00;;;;;;;;114915;1208;24821;-58
2022/11/16 13:03:53;;;;;;;;;19.00;14.00;;;;;;;;114925;1203;25018;-58
2022/11/16 13:06:55;;;;;;;;;21.50;20.00;;;;;;;;114856;1204;24708;-57
2022/11/16 13:09:31;;;;;;;;;24.00;21.33;;;;;;;;114867;1206;25409;-57
2022/11/16 13:12:03;;;;;;;;;22.00;20.00;;;;;;;;114951;1203;25491;-58
2022/11/16 13:14:36;;;;;;;;;21.50;19.50;;;;;;;;114786;1203;25115;-59
2022/11/16 13:17:05;;;;;;;;;19.00;15.00;;;;;;;;114925;1203;24666;-60
2022/11/16 13:19:41;;;;;;;;;21.00;17.00;;;;;;;;114905;1208;25076;-58
2022/11/16 13:22:21;;;;;;;;;14.00;12.00;;;;;;;;114822;1203;25607;-58
2022/11/16 13:24:57;;;;;;;;;28.00;20.00;;;;;;;;114878;1203;25326;-60
2022/11/16 13:27:43;;;;;;;;;20.00;17.00;;;;;;;;114961;1203;24947;-59
2022/11/16 13:30:21;;;;;;;;;18.00;14.33;;;;;;;;114891;1203;25275;-57
2022/11/16 13:33:21;;;;;;;;;27.00;22.00;;;;;;;;114984;1198;25612;-57
2022/11/16 13:35:50;;;;;;;;;22.33;20.67;;;;;;;;114639;1206;26533;-57
2022/11/16 13:38:50;;;;;;;;;21.00;19.00;;;;;;;;114856;1200;25245;-57
2022/11/16 13:41:33;;;;;;;;;21.00;17.00;;;;;;;;114870;1208;25616;-58
2022/11/16 13:44:23;;;;;;;;;27.50;20.50;;;;;;;;114929;1199;25264;-57
2022/11/16 13:47:04;;;;;;;;;25.00;22.50;;;;;;;;114949;1205;25611;-57
2022/11/16 13:49:42;;;;;;;;;26.00;21.00;;;;;;;;114904;1195;25018;-57
2022/11/16 13:52:12;;;;;;;;;22.00;21.00;;;;;;;;114861;1200;25527;-57
2022/11/16 13:55:13;;;;;;;;;23.00;18.00;;;;;;;;114873;1206;25585;-58
2022/11/16 13:57:50;;;;;;;;;27.00;22.00;;;;;;;;114896;1203;24792;-58
2022/11/16 14:00:32;;;;;;;;;22.50;18.50;;;;;;;;114860;1200;25390;-58
2022/11/16 14:03:15;;;;;;;;;20.50;16.25;;;;;;;;114872;1208;25479;-57
2022/11/16 14:05:47;;;;;;;;;26.50;21.50;;;;;;;;114876;1204;25045;-57
2022/11/16 14:08:18;;;;;;;;;19.00;16.00;;;;;;;;114775;1205;25665;-57
2022/11/16 14:10:49;;;;;;;;;19.00;17.00;;;;;;;;114905;1206;24938;-58
2022/11/16 14:13:39;;;;;;;;;22.00;17.00;;;;;;;;114893;1200;24943;-57
2022/11/16 14:16:14;;;;;;;;;17.00;15.00;;;;;;;;114931;1203;25113;-57
2022/11/16 14:18:46;;;;;;;;;21.00;20.00;;;;;;;;114921;1205;25544;-57
2022/11/16 14:21:18;;;;;;;;;21.00;19.50;;;;;;;;114852;1197;25173;-58
2022/11/16 14:23:52;;;;;;;;;21.00;20.50;;;;;;;;114929;1203;26109;-57
2022/11/16 14:26:27;;;;;;;;;23.00;18.00;;;;;;;;114928;1203;24781;-57
2022/11/16 14:29:27;;;;;;;;;23.00;20.00;;;;;;;;114974;1201;24768;-58
2022/11/16 14:31:58;;;;;;;;;29.00;25.00;;;;;;;;114905;1199;24813;-57
2022/11/16 14:34:30;;;;;;;;;22.00;18.00;;;;;;;;114905;1200;25255;-57
2022/11/16 14:36:59;;;;;;;;;24.00;20.50;;;;;;;;114936;1200;25322;-57
2022/11/16 14:39:42;;;;;;;;;22.00;18.00;;;;;;;;114930;1200;25313;-58
2022/11/16 14:42:23;;;;;;;;;24.00;19.00;;;;;;;;114902;1206;25082;-57
2022/11/16 14:45:11;;;;;;;;;24.50;20.50;;;;;;;;114920;1203;25395;-58
2022/11/16 14:47:39;;;;;;;;;24.00;16.00;;;;;;;;114849;1200;25038;-59
2022/11/16 14:50:21;;;;;;;;;25.00;18.00;;;;;;;;114904;1200;25416;-58
2022/11/16 14:52:52;;;;;;;;;26.67;23.00;;;;;;;;114900;1207;24655;-58
2022/11/16 14:55:24;;;;;;;;;28.00;23.00;;;;;;;;114936;1203;25721;-59
2022/11/16 14:58:21;;;;;;;;;25.00;22.00;;;;;;;;114872;1203;25673;-59
2022/11/16 15:00:53;;;;;;;;;20.00;19.00;;;;;;;;114877;1200;25054;-58
2022/11/16 15:03:25;;;;;;;;;19.00;12.50;;;;;;;;114917;1195;25157;-57
2022/11/16 15:05:57;;;;;;;;;24.00;17.50;;;;;;;;114921;1199;25376;-57
2022/11/16 15:08:31;;;;;;;;;30.00;19.50;;;;;;;;114907;1203;24958;-56
2022/11/16 15:11:00;;;;;;;;;22.00;22.00;;;;;;;;114882;1203;25230;-58
2022/11/16 15:13:29;;;;;;;;;27.00;21.50;;;;;;;;114849;1208;25422;-58
2022/11/16 15:16:15;;;;;;;;;23.00;20.00;;;;;;;;114961;1201;24795;-57
2022/11/16 15:19:00;;;;;;;;;21.50;20.00;;;;;;;;114878;1205;25521;-58
2022/11/16 15:21:29;;;;;;;;;27.00;22.50;;;;;;;;114805;1203;25453;-58
2022/11/16 15:23:57;;;;;;;;;30.00;22.00;;;;;;;;114864;1208;25487;-58